createdAt,value
2024-02-08T00:04:39.068Z,-1.16
2024-02-08T00:09:43.175Z,-0.37
2024-02-08T00:14:50.571Z,-0.68
2024-02-08T00:19:54.917Z,-0.14
2024-02-08T00:24:58.942Z,-0.97
2024-02-08T00:30:04.724Z,-0.23
2024-02-08T00:35:11.730Z,-0.73
2024-02-08T00:40:17.292Z,-0.74
2024-02-08T00:45:24.250Z,-0.78
2024-02-08T00:50:28.544Z,-1.17
2024-02-08T00:55:32.711Z,-0.91
2024-02-08T01:00:39.644Z,-1.27
2024-02-08T01:05:44.366Z,-1.43
2024-02-08T01:10:48.425Z,-1.26
2024-02-08T01:15:55.139Z,-1.16
2024-02-08T01:21:00.409Z,-1.26
2024-02-08T01:26:05.776Z,-1.10
2024-02-08T01:31:11.285Z,-1.23
2024-02-08T01:36:16.826Z,-1.40
2024-02-08T01:41:20.645Z,-1.40
2024-02-08T01:46:26.120Z,-1.37
2024-02-08T01:51:31.397Z,-1.05
2024-02-08T01:56:35.385Z,-1.11
2024-02-08T02:01:47.730Z,-1.26
2024-02-08T02:06:52.384Z,-1.09
2024-02-08T02:12:02.660Z,-1.09
2024-02-08T02:17:16.930Z,-1.07
2024-02-08T02:22:23.409Z,-1.01
2024-02-08T02:27:28.272Z,-0.93
2024-02-08T02:32:32.477Z,-1.02
2024-02-08T02:37:37.917Z,-0.92
2024-02-08T02:42:46.210Z,-0.65
2024-02-08T02:47:54.928Z,-0.66
2024-02-08T02:53:00.980Z,-0.52
2024-02-08T02:58:05.676Z,-0.52
2024-02-08T03:03:10.076Z,-0.42
2024-02-08T03:08:17.880Z,-0.25
2024-02-08T03:13:22.139Z,-0.77
2024-02-08T03:18:25.935Z,-0.39
2024-02-08T03:23:31.240Z,-0.80
2024-02-08T03:28:37.008Z,-0.74
2024-02-08T03:33:40.940Z,-0.32
2024-02-08T03:38:48.605Z,-0.83
2024-02-08T03:43:52.505Z,-0.58
2024-02-08T03:48:57.855Z,0.63
2024-02-08T03:54:04.786Z,0.72
2024-02-08T03:59:13.125Z,0.17
2024-02-08T04:04:17.874Z,-0.35
2024-02-08T04:09:35.799Z,-0.23
2024-02-08T04:15:11.760Z,-0.53
2024-02-08T04:20:33.444Z,-0.76
2024-02-08T04:25:56.191Z,-0.97
2024-02-08T04:31:17.563Z,-0.93
2024-02-08T04:36:39.658Z,-0.94
2024-02-08T04:42:03.323Z,-0.68
2024-02-08T04:47:39.246Z,-0.84
2024-02-08T04:53:00.901Z,-0.88
2024-02-08T04:58:28.301Z,-0.23
2024-02-08T05:03:31.809Z,-0.25
2024-02-08T05:08:35.567Z,-0.05
2024-02-08T05:13:42.240Z,0.09
2024-02-08T05:18:47.269Z,0.04
2024-02-08T05:23:52.623Z,0.63
2024-02-08T05:28:58.902Z,0.04
2024-02-08T05:34:16.354Z,0.70
2024-02-08T05:39:27.844Z,1.02
2024-02-08T05:44:42.159Z,0.58
2024-02-08T05:49:54.221Z,-0.07
2024-02-08T05:55:04.209Z,-0.45
2024-02-08T06:00:16.189Z,0.60
2024-02-08T06:05:28.683Z,0.99
2024-02-08T06:10:47.425Z,0.52
2024-02-08T06:16:02.891Z,1.65
2024-02-08T06:21:15.622Z,2.01
2024-02-08T06:26:29.987Z,2.57
2024-02-08T06:31:42.518Z,2.62
2024-02-08T06:37:00.170Z,2.77
2024-02-08T06:42:29.577Z,2.94
2024-02-08T06:47:49.087Z,3.45
2024-02-08T06:53:10.330Z,3.27
2024-02-08T06:58:32.454Z,3.10
2024-02-08T07:03:55.471Z,3.50
2024-02-08T07:09:17.467Z,2.51
2024-02-08T07:14:39.195Z,3.28
2024-02-08T07:20:02.396Z,3.54
2024-02-08T07:25:23.972Z,3.44
2024-02-08T07:30:45.299Z,2.44
2024-02-08T07:36:07.735Z,2.94
2024-02-08T07:41:13.671Z,2.09
2024-02-08T07:46:18.355Z,2.93
2024-02-08T07:51:27.477Z,2.78
2024-02-08T07:56:38.942Z,2.99
2024-02-08T08:01:45.704Z,2.96
2024-02-08T08:06:51.954Z,3.18
2024-02-08T08:11:56.775Z,2.06
2024-02-08T08:17:18.444Z,1.40
2024-02-08T08:22:41.774Z,1.79
2024-02-08T08:27:54.448Z,1.79
2024-02-08T08:33:10.407Z,2.29
2024-02-08T08:38:30.955Z,3.94
2024-02-08T08:43:38.069Z,4.31
2024-02-08T08:48:48.074Z,3.82
2024-02-08T08:54:01.983Z,3.79
2024-02-08T08:59:06.013Z,4.29
2024-02-08T09:04:24.056Z,4.07
2024-02-08T09:09:29.947Z,4.73
2024-02-08T09:14:34.063Z,4.62
2024-02-08T09:19:39.374Z,4.46
2024-02-08T09:24:46.181Z,4.30
2024-02-08T09:29:57.939Z,4.74
2024-02-08T09:35:02.626Z,4.72
2024-02-08T09:40:19.667Z,3.49
2024-02-08T09:45:46.439Z,3.52
2024-02-08T09:50:54.447Z,3.64
2024-02-08T09:56:16.665Z,4.44
2024-02-08T10:01:25.679Z,3.91
2024-02-08T10:06:40.691Z,4.81
2024-02-08T10:11:55.330Z,4.13
2024-02-08T10:17:02.856Z,4.39
2024-02-08T10:22:19.486Z,4.52
2024-02-08T10:27:25.078Z,4.43
2024-02-08T10:32:30.769Z,5.14
2024-02-08T10:37:48.597Z,5.51
2024-02-08T10:42:59.686Z,5.00
2024-02-08T10:48:05.054Z,4.60
2024-02-08T10:53:44.854Z,4.58
2024-02-08T10:59:14.865Z,4.92
2024-02-08T11:04:29.872Z,5.22
2024-02-08T11:09:36.229Z,5.34
2024-02-08T11:14:46.386Z,5.14
2024-02-08T11:19:58.178Z,4.90
2024-02-08T11:25:20.273Z,4.51
2024-02-08T11:30:35.245Z,4.60
2024-02-08T11:35:46.845Z,4.45
2024-02-08T11:40:50.984Z,4.29
2024-02-08T11:46:20.357Z,4.31
2024-02-08T11:51:24.731Z,4.79
2024-02-08T11:56:33.002Z,4.51
2024-02-08T12:01:39.749Z,4.46
2024-02-08T12:06:47.768Z,4.40
2024-02-08T12:11:56.842Z,4.59
2024-02-08T12:17:03.577Z,3.81
2024-02-08T12:22:16.272Z,3.51
2024-02-08T12:27:26.835Z,3.07
2024-02-08T12:32:33.280Z,3.15
2024-02-08T12:37:38.100Z,3.13
2024-02-08T12:42:43.598Z,2.29
2024-02-08T12:47:53.506Z,2.62
2024-02-08T12:52:59.204Z,3.69
2024-02-08T12:58:05.579Z,3.57
2024-02-08T13:03:12.108Z,2.80
2024-02-08T13:08:22.372Z,2.89
2024-02-08T13:13:26.774Z,2.03
2024-02-08T13:18:32.917Z,0.87
2024-02-08T13:23:38.281Z,1.47
2024-02-08T13:28:42.615Z,2.32
2024-02-08T13:33:48.287Z,1.51
2024-02-08T13:38:52.927Z,1.61
2024-02-08T13:43:57.677Z,1.86
2024-02-08T13:49:07.738Z,2.18
2024-02-08T13:54:14.001Z,1.82
2024-02-08T13:59:17.992Z,3.04
2024-02-08T14:04:23.770Z,2.33
2024-02-08T14:09:30.802Z,2.40
2024-02-08T14:14:41.988Z,2.40
2024-02-08T14:19:47.806Z,2.73
2024-02-08T14:24:55.336Z,2.59
2024-02-08T14:29:59.616Z,2.49
2024-02-08T14:35:17.968Z,2.48
2024-02-08T14:40:22.185Z,2.21
2024-02-08T14:45:27.322Z,2.20
2024-02-08T14:50:49.903Z,2.25
2024-02-08T14:55:56.351Z,1.37
2024-02-08T15:01:09.344Z,1.39
2024-02-08T15:06:29.325Z,2.18
2024-02-08T15:11:50.079Z,1.48
2024-02-08T15:16:54.143Z,1.47
2024-02-08T15:22:05.281Z,1.42
2024-02-08T15:27:10.534Z,1.09
2024-02-08T15:32:19.787Z,1.22
2024-02-08T15:37:33.199Z,1.15
2024-02-08T15:42:41.021Z,1.57
2024-02-08T15:48:03.059Z,1.38
2024-02-08T15:53:18.088Z,1.29
2024-02-08T15:58:27.661Z,1.63
2024-02-08T16:03:41.037Z,1.29
2024-02-08T16:08:48.278Z,1.15
2024-02-08T16:13:58.729Z,0.81
2024-02-08T16:19:24.649Z,0.28
2024-02-08T16:24:32.166Z,0.80
2024-02-08T16:29:43.635Z,0.71
2024-02-08T16:34:52.294Z,0.79
2024-02-08T16:40:09.008Z,0.62
2024-02-08T16:45:20.071Z,0.17
2024-02-08T16:50:36.206Z,-0.12
2024-02-08T16:55:48.461Z,-0.31
2024-02-08T17:01:04.303Z,-0.22
2024-02-08T17:06:18.008Z,-0.10
2024-02-08T17:11:32.973Z,0.33
2024-02-08T17:17:13.368Z,-0.03
2024-02-08T17:22:30.485Z,0.38
2024-02-08T17:27:57.590Z,0.85
2024-02-08T17:33:02.261Z,0.68
2024-02-08T17:38:07.112Z,0.84
2024-02-08T17:43:18.789Z,0.30
2024-02-08T17:48:29.727Z,-0.18
2024-02-08T17:53:46.012Z,0.15
2024-02-08T17:58:56.456Z,0.77
2024-02-08T18:04:03.586Z,0.76
2024-02-08T18:09:07.921Z,0.31
2024-02-08T18:15:47.141Z,0.47
2024-02-08T18:23:13.921Z,1.37
2024-02-08T18:28:24.014Z,1.77
2024-02-08T18:33:30.463Z,1.98
2024-02-08T18:38:36.380Z,1.47
2024-02-08T18:43:41.629Z,0.69
2024-02-08T18:48:54.763Z,1.47
2024-02-08T18:54:00.867Z,1.63
2024-02-08T18:59:06.575Z,0.99
2024-02-08T19:04:12.216Z,1.40
2024-02-08T19:09:20.485Z,1.31
2024-02-08T19:14:26.484Z,1.23
2024-02-08T19:19:35.266Z,1.38
2024-02-08T19:24:41.930Z,2.23
2024-02-08T19:29:46.203Z,2.29
2024-02-08T19:34:55.762Z,2.15
2024-02-08T19:40:01.389Z,1.84
2024-02-08T19:45:13.276Z,2.31
2024-02-08T19:50:22.623Z,1.94
2024-02-08T19:55:31.485Z,1.55
2024-02-08T20:00:39.188Z,2.93
2024-02-08T20:05:48.573Z,2.41
2024-02-08T20:10:54.446Z,2.35
2024-02-08T20:16:00.609Z,2.91
2024-02-08T20:21:05.451Z,2.36
2024-02-08T20:26:13.385Z,1.84
2024-02-08T20:31:20.034Z,2.34
2024-02-08T20:36:26.309Z,2.48
2024-02-08T20:41:32.353Z,1.59
2024-02-08T20:46:37.575Z,1.09
2024-02-08T20:51:42.284Z,2.07
2024-02-08T20:56:56.203Z,3.03
2024-02-08T21:02:04.350Z,1.99
2024-02-08T21:07:09.928Z,1.19
2024-02-08T21:12:15.469Z,1.12
2024-02-08T21:17:19.619Z,0.88
2024-02-08T21:22:24.018Z,0.76
2024-02-08T21:27:34.870Z,0.70
2024-02-08T21:32:39.197Z,1.14
2024-02-08T21:37:44.884Z,1.08
2024-02-08T21:42:52.453Z,1.00
2024-02-08T21:47:58.458Z,1.42
2024-02-08T21:53:06.288Z,1.48
2024-02-08T21:58:12.992Z,1.26
2024-02-08T22:03:17.236Z,1.29
2024-02-08T22:08:22.080Z,1.20
2024-02-08T22:13:29.128Z,1.68
2024-02-08T22:18:33.501Z,1.71
2024-02-08T22:23:40.345Z,2.80
2024-02-08T22:28:46.222Z,1.42
2024-02-08T22:33:52.113Z,1.26
2024-02-08T22:38:56.485Z,2.26
2024-02-08T22:44:02.056Z,1.91
2024-02-08T22:49:06.947Z,1.52
2024-02-08T22:54:11.077Z,1.45
2024-02-08T22:59:20.576Z,1.80
2024-02-08T23:04:31.711Z,1.77
2024-02-08T23:09:36.534Z,1.42
2024-02-08T23:14:42.412Z,1.41
2024-02-08T23:19:48.524Z,2.17
2024-02-08T23:24:52.754Z,1.35
2024-02-08T23:29:58.241Z,1.26
2024-02-08T23:35:02.324Z,2.41
2024-02-08T23:40:12.549Z,2.79
2024-02-08T23:45:18.171Z,2.78
2024-02-08T23:50:22.656Z,2.43
2024-02-08T23:55:29.103Z,2.91
